sensor_id;sensor_type;location;lat;lon;timestamp;P1;durP1;ratioP1;P2;durP2;ratioP2
34567;SDS011;20806;50.746;7.116;2022-09-09T00:00:59;0.70;;;0.20;;
34567;SDS011;20806;50.746;7.116;2022-09-09T00:03:27;0.63;;;0.13;;
34567;SDS011;20806;50.746;7.116;2022-09-09T00:06:04;0.70;;;0.10;;
34567;SDS011;20806;50.746;7.116;2022-09-09T00:11:04;0.30;;;0.10;;
34567;SDS011;20806;50.746;7.116;2022-09-09T00:13:50;0.10;;;0.10;;
34567;SDS011;20806;50.746;7.116;2022-09-09T00:16:21;0.10;;;0.10;;
34567;SDS011;20806;50.746;7.116;2022-09-09T00:21:15;0.85;;;0.00;;
34567;SDS011;20806;50.746;7.116;2022-09-09T00:23:46;0.30;;;0.08;;
34567;SDS011;20806;50.746;7.116;2022-09-09T00:29:18;0.50;;;0.10;;
34567;SDS011;20806;50.746;7.116;2022-09-09T00:31:46;0.30;;;0.15;;
34567;SDS011;20806;50.746;7.116;2022-09-09T00:36:39;0.30;;;0.10;;
34567;SDS011;20806;50.746;7.116;2022-09-09T00:39:05;0.38;;;0.10;;
34567;SDS011;20806;50.746;7.116;2022-09-09T00:44:02;0.32;;;0.00;;
34567;SDS011;20806;50.746;7.116;2022-09-09T00:51:46;0.20;;;0.00;;
34567;SDS011;20806;50.746;7.116;2022-09-09T00:56:50;0.30;;;0.10;;
34567;SDS011;20806;50.746;7.116;2022-09-09T01:01:51;0.20;;;0.10;;
34567;SDS011;20806;50.746;7.116;2022-09-09T01:04:23;0.70;;;0.10;;
34567;SDS011;20806;50.746;7.116;2022-09-09T01:06:55;0.20;;;0.10;;
34567;SDS011;20806;50.746;7.116;2022-09-09T01:10:05;0.40;;;0.10;;
34567;SDS011;20806;50.746;7.116;2022-09-09T01:12:16;0.20;;;0.10;;
34567;SDS011;20806;50.746;7.116;2022-09-09T01:14:45;0.70;;;0.03;;
34567;SDS011;20806;50.746;7.116;2022-09-09T01:17:17;0.22;;;0.00;;
34567;SDS011;20806;50.746;7.116;2022-09-09T01:19:50;0.17;;;0.10;;
34567;SDS011;20806;50.746;7.116;2022-09-09T01:22:26;0.70;;;0.20;;
34567;SDS011;20806;50.746;7.116;2022-09-09T01:27:40;0.50;;;0.10;;
34567;SDS011;20806;50.746;7.116;2022-09-09T01:30:09;0.40;;;0.10;;
34567;SDS011;20806;50.746;7.116;2022-09-09T01:32:45;0.40;;;0.10;;
34567;SDS011;20806;50.746;7.116;2022-09-09T01:35:57;0.10;;;0.10;;
34567;SDS011;20806;50.746;7.116;2022-09-09T01:37:58;0.30;;;0.10;;
34567;SDS011;20806;50.746;7.116;2022-09-09T01:40:24;0.20;;;0.10;;
34567;SDS011;20806;50.746;7.116;2022-09-09T01:42:51;0.10;;;0.10;;
34567;SDS011;20806;50.746;7.116;2022-09-09T01:45:17;0.30;;;0.10;;
34567;SDS011;20806;50.746;7.116;2022-09-09T01:47:43;0.10;;;0.10;;
34567;SDS011;20806;50.746;7.116;2022-09-09T01:50:10;0.10;;;0.10;;
34567;SDS011;20806;50.746;7.116;2022-09-09T01:52:37;0.10;;;0.10;;
34567;SDS011;20806;50.746;7.116;2022-09-09T01:55:04;0.20;;;0.10;;
34567;SDS011;20806;50.746;7.116;2022-09-09T02:00:07;0.13;;;0.10;;
34567;SDS011;20806;50.746;7.116;2022-09-09T02:07:47;0.40;;;0.20;;
34567;SDS011;20806;50.746;7.116;2022-09-09T02:10:21;0.70;;;0.20;;
34567;SDS011;20806;50.746;7.116;2022-09-09T02:12:48;0.43;;;0.20;;
34567;SDS011;20806;50.746;7.116;2022-09-09T02:15:24;0.32;;;0.10;;
34567;SDS011;20806;50.746;7.116;2022-09-09T02:17:51;0.50;;;0.25;;
34567;SDS011;20806;50.746;7.116;2022-09-09T02:20:18;0.60;;;0.20;;
34567;SDS011;20806;50.746;7.116;2022-09-09T02:22:45;0.52;;;0.20;;
34567;SDS011;20806;50.746;7.116;2022-09-09T02:25:14;0.20;;;0.20;;
34567;SDS011;20806;50.746;7.116;2022-09-09T02:27:41;0.60;;;0.10;;
34567;SDS011;20806;50.746;7.116;2022-09-09T02:30:09;0.68;;;0.10;;
34567;SDS011;20806;50.746;7.116;2022-09-09T02:32:36;0.30;;;0.10;;
34567;SDS011;20806;50.746;7.116;2022-09-09T02:35:09;0.20;;;0.10;;
34567;SDS011;20806;50.746;7.116;2022-09-09T02:37:37;0.47;;;0.28;;
34567;SDS011;20806;50.746;7.116;2022-09-09T02:40:03;0.45;;;0.20;;
34567;SDS011;20806;50.746;7.116;2022-09-09T02:42:30;0.20;;;0.10;;
34567;SDS011;20806;50.746;7.116;2022-09-09T02:44:58;0.70;;;0.20;;
34567;SDS011;20806;50.746;7.116;2022-09-09T02:47:25;0.47;;;0.20;;
34567;SDS011;20806;50.746;7.116;2022-09-09T02:50:02;0.20;;;0.10;;
34567;SDS011;20806;50.746;7.116;2022-09-09T02:52:32;0.20;;;0.10;;
34567;SDS011;20806;50.746;7.116;2022-09-09T02:55:05;0.70;;;0.15;;
34567;SDS011;20806;50.746;7.116;2022-09-09T02:57:32;0.50;;;0.15;;
34567;SDS011;20806;50.746;7.116;2022-09-09T02:59:59;0.60;;;0.20;;
34567;SDS011;20806;50.746;7.116;2022-09-09T03:02:25;0.40;;;0.20;;
34567;SDS011;20806;50.746;7.116;2022-09-09T03:04:51;0.47;;;0.20;;
34567;SDS011;20806;50.746;7.116;2022-09-09T03:07:18;0.40;;;0.20;;
34567;SDS011;20806;50.746;7.116;2022-09-09T03:09:44;1.00;;;0.20;;
34567;SDS011;20806;50.746;7.116;2022-09-09T03:12:10;0.40;;;0.15;;
34567;SDS011;20806;50.746;7.116;2022-09-09T03:14:37;0.17;;;0.10;;
34567;SDS011;20806;50.746;7.116;2022-09-09T03:17:03;0.10;;;0.00;;
34567;SDS011;20806;50.746;7.116;2022-09-09T03:19:30;0.67;;;0.10;;
34567;SDS011;20806;50.746;7.116;2022-09-09T03:21:56;0.57;;;0.10;;
34567;SDS011;20806;50.746;7.116;2022-09-09T03:24:23;0.52;;;0.10;;
34567;SDS011;20806;50.746;7.116;2022-09-09T03:26:49;0.20;;;0.10;;
34567;SDS011;20806;50.746;7.116;2022-09-09T03:29:15;0.90;;;0.10;;
34567;SDS011;20806;50.746;7.116;2022-09-09T03:31:43;0.40;;;0.10;;
34567;SDS011;20806;50.746;7.116;2022-09-09T03:34:09;0.28;;;0.10;;
34567;SDS011;20806;50.746;7.116;2022-09-09T03:36:35;0.10;;;0.10;;
34567;SDS011;20806;50.746;7.116;2022-09-09T03:39:01;0.80;;;0.10;;
34567;SDS011;20806;50.746;7.116;2022-09-09T03:41:28;0.10;;;0.00;;
34567;SDS011;20806;50.746;7.116;2022-09-09T03:43:54;0.68;;;0.10;;
34567;SDS011;20806;50.746;7.116;2022-09-09T03:46:20;0.10;;;0.10;;
34567;SDS011;20806;50.746;7.116;2022-09-09T03:48:47;0.20;;;0.17;;
34567;SDS011;20806;50.746;7.116;2022-09-09T03:51:13;0.40;;;0.20;;
34567;SDS011;20806;50.746;7.116;2022-09-09T03:53:40;0.65;;;0.20;;
34567;SDS011;20806;50.746;7.116;2022-09-09T03:56:06;0.57;;;0.20;;
34567;SDS011;20806;50.746;7.116;2022-09-09T03:58:33;0.20;;;0.20;;
34567;SDS011;20806;50.746;7.116;2022-09-09T04:01:03;0.93;;;0.10;;
34567;SDS011;20806;50.746;7.116;2022-09-09T04:03:30;0.47;;;0.20;;
34567;SDS011;20806;50.746;7.116;2022-09-09T04:05:56;0.13;;;0.10;;
34567;SDS011;20806;50.746;7.116;2022-09-09T04:08:23;0.20;;;0.10;;
34567;SDS011;20806;50.746;7.116;2022-09-09T04:10:50;0.27;;;0.10;;
34567;SDS011;20806;50.746;7.116;2022-09-09T04:13:17;0.60;;;0.10;;
34567;SDS011;20806;50.746;7.116;2022-09-09T04:15:43;0.40;;;0.10;;
34567;SDS011;20806;50.746;7.116;2022-09-09T04:18:10;0.20;;;0.10;;
34567;SDS011;20806;50.746;7.116;2022-09-09T04:20:36;0.30;;;0.10;;
34567;SDS011;20806;50.746;7.116;2022-09-09T04:23:03;0.20;;;0.10;;
34567;SDS011;20806;50.746;7.116;2022-09-09T04:25:30;0.90;;;0.10;;
34567;SDS011;20806;50.746;7.116;2022-09-09T04:27:56;0.10;;;0.10;;
34567;SDS011;20806;50.746;7.116;2022-09-09T04:30:23;0.10;;;0.10;;
34567;SDS011;20806;50.746;7.116;2022-09-09T04:32:49;0.40;;;0.10;;
34567;SDS011;20806;50.746;7.116;2022-09-09T04:35:15;0.30;;;0.10;;
34567;SDS011;20806;50.746;7.116;2022-09-09T04:37:41;0.10;;;0.00;;
34567;SDS011;20806;50.746;7.116;2022-09-09T04:40:08;0.35;;;0.03;;
34567;SDS011;20806;50.746;7.116;2022-09-09T04:42:37;0.47;;;0.13;;
34567;SDS011;20806;50.746;7.116;2022-09-09T04:45:04;0.60;;;0.00;;
34567;SDS011;20806;50.746;7.116;2022-09-09T04:47:31;0.20;;;0.10;;
34567;SDS011;20806;50.746;7.116;2022-09-09T04:49:57;0.50;;;0.10;;
34567;SDS011;20806;50.746;7.116;2022-09-09T04:52:23;0.20;;;0.10;;
34567;SDS011;20806;50.746;7.116;2022-09-09T04:54:49;0.40;;;0.10;;
34567;SDS011;20806;50.746;7.116;2022-09-09T04:57:15;0.30;;;0.10;;
34567;SDS011;20806;50.746;7.116;2022-09-09T04:59:41;0.08;;;0.00;;
34567;SDS011;20806;50.746;7.116;2022-09-09T05:02:07;0.22;;;0.10;;
34567;SDS011;20806;50.746;7.116;2022-09-09T05:04:33;0.20;;;0.10;;
34567;SDS011;20806;50.746;7.116;2022-09-09T05:06:59;0.32;;;0.08;;
34567;SDS011;20806;50.746;7.116;2022-09-09T05:09:25;0.60;;;0.10;;
34567;SDS011;20806;50.746;7.116;2022-09-09T05:11:51;0.10;;;0.10;;
34567;SDS011;20806;50.746;7.116;2022-09-09T05:14:17;0.95;;;0.10;;
34567;SDS011;20806;50.746;7.116;2022-09-09T05:16:46;0.75;;;0.10;;
34567;SDS011;20806;50.746;7.116;2022-09-09T05:19:12;0.20;;;0.10;;
34567;SDS011;20806;50.746;7.116;2022-09-09T05:21:38;1.20;;;0.10;;
34567;SDS011;20806;50.746;7.116;2022-09-09T05:24:04;0.13;;;0.10;;
34567;SDS011;20806;50.746;7.116;2022-09-09T05:26:30;0.43;;;0.10;;
34567;SDS011;20806;50.746;7.116;2022-09-09T05:28:57;0.20;;;0.10;;
34567;SDS011;20806;50.746;7.116;2022-09-09T05:31:25;0.32;;;0.20;;
34567;SDS011;20806;50.746;7.116;2022-09-09T05:33:54;0.10;;;0.10;;
34567;SDS011;20806;50.746;7.116;2022-09-09T05:36:20;0.30;;;0.10;;
34567;SDS011;20806;50.746;7.116;2022-09-09T05:38:47;0.35;;;0.10;;
34567;SDS011;20806;50.746;7.116;2022-09-09T05:41:14;0.30;;;0.20;;
34567;SDS011;20806;50.746;7.116;2022-09-09T05:43:43;0.40;;;0.10;;
34567;SDS011;20806;50.746;7.116;2022-09-09T05:46:12;0.22;;;0.10;;
34567;SDS011;20806;50.746;7.116;2022-09-09T05:48:40;0.30;;;0.10;;
34567;SDS011;20806;50.746;7.116;2022-09-09T05:51:07;0.35;;;0.13;;
34567;SDS011;20806;50.746;7.116;2022-09-09T05:53:34;0.93;;;0.20;;
34567;SDS011;20806;50.746;7.116;2022-09-09T05:56:00;0.20;;;0.20;;
34567;SDS011;20806;50.746;7.116;2022-09-09T05:58:28;0.60;;;0.10;;
34567;SDS011;20806;50.746;7.116;2022-09-09T06:00:59;0.10;;;0.00;;
34567;SDS011;20806;50.746;7.116;2022-09-09T06:03:26;0.90;;;0.20;;
34567;SDS011;20806;50.746;7.116;2022-09-09T06:05:58;0.55;;;0.20;;
34567;SDS011;20806;50.746;7.116;2022-09-09T06:08:24;0.35;;;0.10;;
34567;SDS011;20806;50.746;7.116;2022-09-09T06:10:50;0.33;;;0.10;;
34567;SDS011;20806;50.746;7.116;2022-09-09T06:13:17;0.40;;;0.10;;
34567;SDS011;20806;50.746;7.116;2022-09-09T06:15:52;0.20;;;0.10;;
34567;SDS011;20806;50.746;7.116;2022-09-09T06:18:18;0.27;;;0.10;;
34567;SDS011;20806;50.746;7.116;2022-09-09T06:20:58;0.80;;;0.10;;
34567;SDS011;20806;50.746;7.116;2022-09-09T06:23:25;0.50;;;0.10;;
34567;SDS011;20806;50.746;7.116;2022-09-09T06:25:51;0.20;;;0.20;;
34567;SDS011;20806;50.746;7.116;2022-09-09T06:28:20;0.22;;;0.20;;
34567;SDS011;20806;50.746;7.116;2022-09-09T06:30:46;0.50;;;0.20;;
34567;SDS011;20806;50.746;7.116;2022-09-09T06:33:12;0.47;;;0.17;;
34567;SDS011;20806;50.746;7.116;2022-09-09T06:35:38;1.17;;;0.20;;
34567;SDS011;20806;50.746;7.116;2022-09-09T06:38:04;0.45;;;0.30;;
34567;SDS011;20806;50.746;7.116;2022-09-09T06:40:30;0.88;;;0.20;;
34567;SDS011;20806;50.746;7.116;2022-09-09T06:42:59;0.32;;;0.17;;
34567;SDS011;20806;50.746;7.116;2022-09-09T06:45:26;0.38;;;0.15;;
34567;SDS011;20806;50.746;7.116;2022-09-09T06:47:54;0.80;;;0.20;;
34567;SDS011;20806;50.746;7.116;2022-09-09T06:50:20;0.70;;;0.20;;
34567;SDS011;20806;50.746;7.116;2022-09-09T06:52:46;0.68;;;0.20;;
34567;SDS011;20806;50.746;7.116;2022-09-09T06:55:12;0.68;;;0.25;;
34567;SDS011;20806;50.746;7.116;2022-09-09T06:57:40;0.45;;;0.10;;
34567;SDS011;20806;50.746;7.116;2022-09-09T07:00:06;0.77;;;0.10;;
34567;SDS011;20806;50.746;7.116;2022-09-09T07:02:33;0.30;;;0.20;;
34567;SDS011;20806;50.746;7.116;2022-09-09T07:05:04;0.88;;;0.20;;
34567;SDS011;20806;50.746;7.116;2022-09-09T07:07:30;1.30;;;0.22;;
34567;SDS011;20806;50.746;7.116;2022-09-09T07:09:56;1.00;;;0.20;;
34567;SDS011;20806;50.746;7.116;2022-09-09T07:12:22;1.50;;;0.30;;
34567;SDS011;20806;50.746;7.116;2022-09-09T07:14:48;0.40;;;0.30;;
34567;SDS011;20806;50.746;7.116;2022-09-09T07:17:14;0.80;;;0.10;;
34567;SDS011;20806;50.746;7.116;2022-09-09T07:19:40;0.60;;;0.20;;
34567;SDS011;20806;50.746;7.116;2022-09-09T07:22:08;1.95;;;0.38;;
34567;SDS011;20806;50.746;7.116;2022-09-09T07:24:35;0.55;;;0.25;;
34567;SDS011;20806;50.746;7.116;2022-09-09T07:27:02;0.50;;;0.20;;
34567;SDS011;20806;50.746;7.116;2022-09-09T07:29:28;1.38;;;0.32;;
34567;SDS011;20806;50.746;7.116;2022-09-09T07:31:54;0.70;;;0.30;;
34567;SDS011;20806;50.746;7.116;2022-09-09T07:34:20;0.80;;;0.20;;
34567;SDS011;20806;50.746;7.116;2022-09-09T07:36:46;0.57;;;0.25;;
34567;SDS011;20806;50.746;7.116;2022-09-09T07:39:12;0.67;;;0.20;;
34567;SDS011;20806;50.746;7.116;2022-09-09T07:41:41;2.42;;;0.30;;
34567;SDS011;20806;50.746;7.116;2022-09-09T07:44:12;0.98;;;0.38;;
34567;SDS011;20806;50.746;7.116;2022-09-09T07:46:38;3.03;;;0.47;;
34567;SDS011;20806;50.746;7.116;2022-09-09T07:49:05;1.08;;;0.30;;
34567;SDS011;20806;50.746;7.116;2022-09-09T07:51:32;2.30;;;0.30;;
34567;SDS011;20806;50.746;7.116;2022-09-09T07:53:59;1.40;;;0.20;;
34567;SDS011;20806;50.746;7.116;2022-09-09T07:56:27;1.35;;;0.40;;
34567;SDS011;20806;50.746;7.116;2022-09-09T07:58:54;1.17;;;0.40;;
34567;SDS011;20806;50.746;7.116;2022-09-09T08:01:24;0.60;;;0.40;;
34567;SDS011;20806;50.746;7.116;2022-09-09T08:03:57;0.93;;;0.40;;
34567;SDS011;20806;50.746;7.116;2022-09-09T08:06:24;8.68;;;0.85;;
34567;SDS011;20806;50.746;7.116;2022-09-09T08:08:51;2.77;;;0.50;;
34567;SDS011;20806;50.746;7.116;2022-09-09T08:11:18;7.72;;;0.60;;
34567;SDS011;20806;50.746;7.116;2022-09-09T08:13:44;5.95;;;0.82;;
34567;SDS011;20806;50.746;7.116;2022-09-09T08:16:12;2.25;;;0.40;;
34567;SDS011;20806;50.746;7.116;2022-09-09T08:18:39;6.45;;;0.60;;
34567;SDS011;20806;50.746;7.116;2022-09-09T08:21:06;4.77;;;0.43;;
34567;SDS011;20806;50.746;7.116;2022-09-09T08:23:33;1.63;;;0.38;;
34567;SDS011;20806;50.746;7.116;2022-09-09T08:26:04;1.77;;;0.40;;
34567;SDS011;20806;50.746;7.116;2022-09-09T08:28:30;4.55;;;0.60;;
34567;SDS011;20806;50.746;7.116;2022-09-09T08:31:04;6.00;;;0.82;;
34567;SDS011;20806;50.746;7.116;2022-09-09T08:33:30;2.63;;;0.60;;
34567;SDS011;20806;50.746;7.116;2022-09-09T08:35:56;7.60;;;0.77;;
34567;SDS011;20806;50.746;7.116;2022-09-09T08:38:22;4.57;;;0.73;;
34567;SDS011;20806;50.746;7.116;2022-09-09T08:40:47;3.63;;;0.70;;
34567;SDS011;20806;50.746;7.116;2022-09-09T08:43:16;1.58;;;0.38;;
34567;SDS011;20806;50.746;7.116;2022-09-09T08:45:50;1.00;;;0.30;;
34567;SDS011;20806;50.746;7.116;2022-09-09T08:48:36;1.42;;;0.22;;
34567;SDS011;20806;50.746;7.116;2022-09-09T08:51:06;0.47;;;0.20;;
34567;SDS011;20806;50.746;7.116;2022-09-09T08:53:43;1.05;;;0.20;;
34567;SDS011;20806;50.746;7.116;2022-09-09T08:56:16;1.83;;;0.40;;
34567;SDS011;20806;50.746;7.116;2022-09-09T08:58:46;1.30;;;0.30;;
34567;SDS011;20806;50.746;7.116;2022-09-09T09:06:45;3.80;;;0.43;;
34567;SDS011;20806;50.746;7.116;2022-09-09T09:09:30;0.93;;;0.22;;
34567;SDS011;20806;50.746;7.116;2022-09-09T09:12:02;0.63;;;0.20;;
34567;SDS011;20806;50.746;7.116;2022-09-09T09:14:35;0.77;;;0.20;;
34567;SDS011;20806;50.746;7.116;2022-09-09T09:19:28;3.10;;;0.30;;
34567;SDS011;20806;50.746;7.116;2022-09-09T09:27:14;0.65;;;0.30;;
34567;SDS011;20806;50.746;7.116;2022-09-09T09:29:41;1.35;;;0.30;;
34567;SDS011;20806;50.746;7.116;2022-09-09T09:32:09;2.60;;;0.30;;
34567;SDS011;20806;50.746;7.116;2022-09-09T09:34:37;2.45;;;0.30;;
34567;SDS011;20806;50.746;7.116;2022-09-09T09:37:07;2.10;;;0.50;;
34567;SDS011;20806;50.746;7.116;2022-09-09T09:39:38;2.28;;;0.50;;
34567;SDS011;20806;50.746;7.116;2022-09-09T09:42:09;2.27;;;0.50;;
34567;SDS011;20806;50.746;7.116;2022-09-09T09:44:38;0.95;;;0.30;;
34567;SDS011;20806;50.746;7.116;2022-09-09T09:47:10;0.68;;;0.22;;
34567;SDS011;20806;50.746;7.116;2022-09-09T09:49:37;0.75;;;0.20;;
34567;SDS011;20806;50.746;7.116;2022-09-09T09:52:03;0.60;;;0.20;;
34567;SDS011;20806;50.746;7.116;2022-09-09T09:54:32;0.88;;;0.20;;
34567;SDS011;20806;50.746;7.116;2022-09-09T09:57:10;2.10;;;0.40;;
34567;SDS011;20806;50.746;7.116;2022-09-09T09:59:37;1.60;;;0.20;;
34567;SDS011;20806;50.746;7.116;2022-09-09T10:02:16;0.75;;;0.22;;
34567;SDS011;20806;50.746;7.116;2022-09-09T10:04:42;1.20;;;0.30;;
34567;SDS011;20806;50.746;7.116;2022-09-09T10:07:11;2.20;;;0.40;;
34567;SDS011;20806;50.746;7.116;2022-09-09T10:09:37;1.35;;;0.20;;
34567;SDS011;20806;50.746;7.116;2022-09-09T10:12:15;0.75;;;0.30;;
34567;SDS011;20806;50.746;7.116;2022-09-09T10:22:50;1.40;;;0.30;;
34567;SDS011;20806;50.746;7.116;2022-09-09T10:25:38;1.17;;;0.30;;
34567;SDS011;20806;50.746;7.116;2022-09-09T10:33:17;0.40;;;0.20;;
34567;SDS011;20806;50.746;7.116;2022-09-09T10:45:39;1.30;;;0.20;;
34567;SDS011;20806;50.746;7.116;2022-09-09T10:55:56;1.10;;;0.20;;
34567;SDS011;20806;50.746;7.116;2022-09-09T10:59:11;1.35;;;0.25;;
34567;SDS011;20806;50.746;7.116;2022-09-09T11:01:19;0.40;;;0.20;;
34567;SDS011;20806;50.746;7.116;2022-09-09T11:03:48;0.60;;;0.20;;
34567;SDS011;20806;50.746;7.116;2022-09-09T11:06:19;1.10;;;0.20;;
34567;SDS011;20806;50.746;7.116;2022-09-09T11:08:47;0.77;;;0.30;;
34567;SDS011;20806;50.746;7.116;2022-09-09T11:14:01;1.20;;;0.30;;
34567;SDS011;20806;50.746;7.116;2022-09-09T11:16:38;0.55;;;0.20;;
34567;SDS011;20806;50.746;7.116;2022-09-09T11:21:41;1.10;;;0.17;;
34567;SDS011;20806;50.746;7.116;2022-09-09T11:24:57;1.08;;;0.20;;
34567;SDS011;20806;50.746;7.116;2022-09-09T11:27:05;0.60;;;0.20;;
34567;SDS011;20806;50.746;7.116;2022-09-09T11:40:39;1.80;;;0.30;;
34567;SDS011;20806;50.746;7.116;2022-09-09T11:43:09;1.07;;;0.30;;
34567;SDS011;20806;50.746;7.116;2022-09-09T11:45:37;1.10;;;0.30;;
34567;SDS011;20806;50.746;7.116;2022-09-09T11:48:04;0.40;;;0.20;;
34567;SDS011;20806;50.746;7.116;2022-09-09T11:50:37;0.32;;;0.10;;
34567;SDS011;20806;50.746;7.116;2022-09-09T11:53:20;1.00;;;0.20;;
34567;SDS011;20806;50.746;7.116;2022-09-09T11:55:47;1.00;;;0.30;;
34567;SDS011;20806;50.746;7.116;2022-09-09T11:58:15;1.20;;;0.20;;
34567;SDS011;20806;50.746;7.116;2022-09-09T12:00:43;0.68;;;0.20;;
34567;SDS011;20806;50.746;7.116;2022-09-09T12:03:55;1.40;;;0.20;;
34567;SDS011;20806;50.746;7.116;2022-09-09T12:05:56;1.25;;;0.30;;
34567;SDS011;20806;50.746;7.116;2022-09-09T12:08:26;1.60;;;0.30;;
34567;SDS011;20806;50.746;7.116;2022-09-09T12:10:54;0.20;;;0.10;;
34567;SDS011;20806;50.746;7.116;2022-09-09T12:13:21;0.60;;;0.10;;
34567;SDS011;20806;50.746;7.116;2022-09-09T12:15:49;0.50;;;0.20;;
34567;SDS011;20806;50.746;7.116;2022-09-09T12:18:26;0.57;;;0.10;;
34567;SDS011;20806;50.746;7.116;2022-09-09T12:21:01;0.60;;;0.10;;
34567;SDS011;20806;50.746;7.116;2022-09-09T12:23:44;0.70;;;0.20;;
34567;SDS011;20806;50.746;7.116;2022-09-09T12:33:51;0.50;;;0.20;;
34567;SDS011;20806;50.746;7.116;2022-09-09T12:36:21;1.33;;;0.20;;
34567;SDS011;20806;50.746;7.116;2022-09-09T12:38:48;0.60;;;0.20;;
34567;SDS011;20806;50.746;7.116;2022-09-09T12:41:26;0.45;;;0.10;;
34567;SDS011;20806;50.746;7.116;2022-09-09T12:44:03;0.50;;;0.20;;
34567;SDS011;20806;50.746;7.116;2022-09-09T12:46:40;0.30;;;0.20;;
34567;SDS011;20806;50.746;7.116;2022-09-09T12:51:48;0.77;;;0.20;;
34567;SDS011;20806;50.746;7.116;2022-09-09T12:54:14;1.17;;;0.30;;
34567;SDS011;20806;50.746;7.116;2022-09-09T12:56:44;3.13;;;0.22;;
34567;SDS011;20806;50.746;7.116;2022-09-09T12:59:21;0.47;;;0.10;;
34567;SDS011;20806;50.746;7.116;2022-09-09T13:01:54;0.75;;;0.28;;
34567;SDS011;20806;50.746;7.116;2022-09-09T13:04:21;0.47;;;0.20;;
34567;SDS011;20806;50.746;7.116;2022-09-09T13:06:47;1.33;;;0.10;;
34567;SDS011;20806;50.746;7.116;2022-09-09T13:09:14;1.10;;;0.20;;
34567;SDS011;20806;50.746;7.116;2022-09-09T13:11:44;0.45;;;0.20;;
34567;SDS011;20806;50.746;7.116;2022-09-09T13:14:17;0.50;;;0.10;;
34567;SDS011;20806;50.746;7.116;2022-09-09T13:16:53;0.40;;;0.10;;
34567;SDS011;20806;50.746;7.116;2022-09-09T13:19:20;0.30;;;0.10;;
34567;SDS011;20806;50.746;7.116;2022-09-09T13:21:46;0.50;;;0.30;;
34567;SDS011;20806;50.746;7.116;2022-09-09T13:24:24;0.55;;;0.10;;
34567;SDS011;20806;50.746;7.116;2022-09-09T13:26:57;0.30;;;0.10;;
34567;SDS011;20806;50.746;7.116;2022-09-09T13:29:23;0.30;;;0.10;;
34567;SDS011;20806;50.746;7.116;2022-09-09T13:31:49;1.60;;;0.20;;
34567;SDS011;20806;50.746;7.116;2022-09-09T13:34:28;1.20;;;0.20;;
34567;SDS011;20806;50.746;7.116;2022-09-09T13:36:56;0.77;;;0.10;;
34567;SDS011;20806;50.746;7.116;2022-09-09T13:39:23;0.83;;;0.10;;
34567;SDS011;20806;50.746;7.116;2022-09-09T13:41:49;0.70;;;0.30;;
34567;SDS011;20806;50.746;7.116;2022-09-09T13:44:31;0.40;;;0.20;;
34567;SDS011;20806;50.746;7.116;2022-09-09T13:47:00;0.30;;;0.10;;
34567;SDS011;20806;50.746;7.116;2022-09-09T13:49:27;1.20;;;0.20;;
34567;SDS011;20806;50.746;7.116;2022-09-09T13:52:03;0.82;;;0.20;;
34567;SDS011;20806;50.746;7.116;2022-09-09T13:54:29;0.40;;;0.10;;
34567;SDS011;20806;50.746;7.116;2022-09-09T13:56:56;0.22;;;0.10;;
34567;SDS011;20806;50.746;7.116;2022-09-09T13:59:22;0.10;;;0.10;;
34567;SDS011;20806;50.746;7.116;2022-09-09T14:01:49;0.50;;;0.10;;
34567;SDS011;20806;50.746;7.116;2022-09-09T14:04:17;0.90;;;0.10;;
34567;SDS011;20806;50.746;7.116;2022-09-09T14:06:43;0.13;;;0.13;;
34567;SDS011;20806;50.746;7.116;2022-09-09T14:09:12;0.70;;;0.30;;
34567;SDS011;20806;50.746;7.116;2022-09-09T14:11:39;0.55;;;0.10;;
34567;SDS011;20806;50.746;7.116;2022-09-09T14:14:05;0.20;;;0.10;;
34567;SDS011;20806;50.746;7.116;2022-09-09T14:16:32;0.30;;;0.10;;
34567;SDS011;20806;50.746;7.116;2022-09-09T14:18:58;0.47;;;0.10;;
34567;SDS011;20806;50.746;7.116;2022-09-09T14:21:24;0.10;;;0.00;;
34567;SDS011;20806;50.746;7.116;2022-09-09T14:23:50;0.30;;;0.20;;
34567;SDS011;20806;50.746;7.116;2022-09-09T14:26:17;0.20;;;0.10;;
34567;SDS011;20806;50.746;7.116;2022-09-09T14:28:45;0.30;;;0.10;;
34567;SDS011;20806;50.746;7.116;2022-09-09T14:31:12;0.68;;;0.10;;
34567;SDS011;20806;50.746;7.116;2022-09-09T14:33:38;0.20;;;0.10;;
34567;SDS011;20806;50.746;7.116;2022-09-09T14:36:04;0.20;;;0.00;;
34567;SDS011;20806;50.746;7.116;2022-09-09T14:38:32;0.70;;;0.10;;
34567;SDS011;20806;50.746;7.116;2022-09-09T14:40:59;0.10;;;0.00;;
34567;SDS011;20806;50.746;7.116;2022-09-09T14:43:28;0.30;;;0.10;;
34567;SDS011;20806;50.746;7.116;2022-09-09T14:45:55;0.20;;;0.10;;
34567;SDS011;20806;50.746;7.116;2022-09-09T14:48:21;0.10;;;0.10;;
34567;SDS011;20806;50.746;7.116;2022-09-09T14:50:47;0.30;;;0.10;;
34567;SDS011;20806;50.746;7.116;2022-09-09T14:53:14;0.35;;;0.10;;
34567;SDS011;20806;50.746;7.116;2022-09-09T14:55:42;0.32;;;0.10;;
34567;SDS011;20806;50.746;7.116;2022-09-09T14:58:07;0.30;;;0.10;;
34567;SDS011;20806;50.746;7.116;2022-09-09T15:00:33;0.50;;;0.20;;
34567;SDS011;20806;50.746;7.116;2022-09-09T15:03:00;0.50;;;0.10;;
34567;SDS011;20806;50.746;7.116;2022-09-09T15:05:26;0.60;;;0.10;;
34567;SDS011;20806;50.746;7.116;2022-09-09T15:07:53;0.10;;;0.10;;
34567;SDS011;20806;50.746;7.116;2022-09-09T15:10:19;0.50;;;0.10;;
34567;SDS011;20806;50.746;7.116;2022-09-09T15:12:46;0.10;;;0.10;;
34567;SDS011;20806;50.746;7.116;2022-09-09T15:15:12;0.20;;;0.10;;
34567;SDS011;20806;50.746;7.116;2022-09-09T15:17:38;0.90;;;0.10;;
34567;SDS011;20806;50.746;7.116;2022-09-09T15:20:04;0.30;;;0.20;;
34567;SDS011;20806;50.746;7.116;2022-09-09T15:22:33;0.40;;;0.13;;
34567;SDS011;20806;50.746;7.116;2022-09-09T15:25:01;0.30;;;0.10;;
34567;SDS011;20806;50.746;7.116;2022-09-09T15:27:27;0.28;;;0.10;;
34567;SDS011;20806;50.746;7.116;2022-09-09T15:29:53;0.20;;;0.10;;
34567;SDS011;20806;50.746;7.116;2022-09-09T15:32:30;0.40;;;0.13;;
34567;SDS011;20806;50.746;7.116;2022-09-09T15:34:57;0.30;;;0.10;;
34567;SDS011;20806;50.746;7.116;2022-09-09T15:37:23;0.20;;;0.10;;
34567;SDS011;20806;50.746;7.116;2022-09-09T15:39:49;0.30;;;0.10;;
34567;SDS011;20806;50.746;7.116;2022-09-09T15:42:15;0.88;;;0.13;;
34567;SDS011;20806;50.746;7.116;2022-09-09T15:44:41;0.50;;;0.20;;
34567;SDS011;20806;50.746;7.116;2022-09-09T15:47:07;0.38;;;0.20;;
34567;SDS011;20806;50.746;7.116;2022-09-09T15:49:35;0.40;;;0.20;;
34567;SDS011;20806;50.746;7.116;2022-09-09T15:52:08;0.98;;;0.10;;
34567;SDS011;20806;50.746;7.116;2022-09-09T15:54:36;0.47;;;0.20;;
34567;SDS011;20806;50.746;7.116;2022-09-09T15:57:04;0.20;;;0.10;;
34567;SDS011;20806;50.746;7.116;2022-09-09T15:59:32;0.20;;;0.10;;
34567;SDS011;20806;50.746;7.116;2022-09-09T16:01:59;0.20;;;0.20;;
34567;SDS011;20806;50.746;7.116;2022-09-09T16:04:25;0.10;;;0.10;;
34567;SDS011;20806;50.746;7.116;2022-09-09T16:06:55;0.20;;;0.10;;
34567;SDS011;20806;50.746;7.116;2022-09-09T16:09:23;0.40;;;0.20;;
34567;SDS011;20806;50.746;7.116;2022-09-09T16:11:49;0.70;;;0.10;;
34567;SDS011;20806;50.746;7.116;2022-09-09T16:14:15;0.30;;;0.17;;
34567;SDS011;20806;50.746;7.116;2022-09-09T16:16:42;0.17;;;0.10;;
34567;SDS011;20806;50.746;7.116;2022-09-09T16:19:12;0.13;;;0.10;;
34567;SDS011;20806;50.746;7.116;2022-09-09T16:21:40;0.38;;;0.10;;
34567;SDS011;20806;50.746;7.116;2022-09-09T16:24:07;0.20;;;0.10;;
34567;SDS011;20806;50.746;7.116;2022-09-09T16:26:35;0.10;;;0.10;;
34567;SDS011;20806;50.746;7.116;2022-09-09T16:29:01;0.20;;;0.10;;
34567;SDS011;20806;50.746;7.116;2022-09-09T16:31:28;0.63;;;0.10;;
34567;SDS011;20806;50.746;7.116;2022-09-09T16:33:54;0.20;;;0.10;;
34567;SDS011;20806;50.746;7.116;2022-09-09T16:36:21;0.00;;;0.00;;
34567;SDS011;20806;50.746;7.116;2022-09-09T16:38:47;0.73;;;0.10;;
34567;SDS011;20806;50.746;7.116;2022-09-09T16:41:14;0.22;;;0.20;;